createdAt,value
2022-08-02T00:00:09.816Z,22.60
2022-08-02T00:02:36.920Z,20.75
2022-08-02T00:05:03.911Z,20.08
2022-08-02T00:07:30.570Z,21.40
2022-08-02T00:09:57.319Z,24.42
2022-08-02T00:12:24.470Z,22.42
2022-08-02T00:14:51.218Z,22.55
2022-08-02T00:17:17.952Z,21.67
2022-08-02T00:19:44.993Z,21.38
2022-08-02T00:22:11.866Z,22.58
2022-08-02T00:24:38.646Z,19.80
2022-08-02T00:27:09.269Z,20.33
2022-08-02T00:29:50.351Z,19.48
2022-08-02T00:32:19.294Z,18.20
2022-08-02T00:34:45.713Z,18.45
2022-08-02T00:37:12.124Z,19.98
2022-08-02T00:39:38.560Z,19.42
2022-08-02T00:42:06.252Z,19.40
2022-08-02T00:44:32.873Z,19.90
2022-08-02T00:46:59.825Z,19.85
2022-08-02T00:49:26.330Z,18.95
2022-08-02T00:51:53.187Z,19.67
2022-08-02T00:54:20.751Z,20.20
2022-08-02T00:56:49.507Z,19.40
2022-08-02T00:59:16.882Z,20.77
2022-08-02T01:01:55.952Z,20.73
2022-08-02T01:04:30.432Z,19.80
2022-08-02T01:07:12.702Z,20.70
2022-08-02T01:09:41.831Z,19.90
2022-08-02T01:12:08.839Z,20.00
2022-08-02T01:14:35.869Z,20.60
2022-08-02T01:17:25.867Z,20.52
2022-08-02T01:20:04.699Z,21.48
2022-08-02T01:23:01.484Z,21.85
2022-08-02T01:25:58.936Z,21.73
2022-08-02T01:29:02.527Z,20.65
2022-08-02T01:31:53.989Z,21.90
2022-08-02T01:34:37.285Z,21.33
2022-08-02T01:37:26.202Z,21.65
2022-08-02T01:40:00.829Z,21.75
2022-08-02T01:42:28.616Z,21.75
2022-08-02T01:44:57.098Z,22.42
2022-08-02T01:47:28.905Z,22.00
2022-08-02T01:50:01.574Z,21.73
2022-08-02T01:52:33.884Z,22.17
2022-08-02T01:55:34.949Z,22.63
2022-08-02T01:58:20.461Z,22.35
2022-08-02T02:00:48.207Z,23.13
2022-08-02T02:03:20.798Z,22.52
2022-08-02T02:05:49.356Z,22.73
2022-08-02T02:08:27.152Z,22.20
2022-08-02T02:10:56.258Z,22.38
2022-08-02T02:13:33.191Z,22.90
2022-08-02T02:16:04.048Z,22.92
2022-08-02T02:20:57.824Z,22.85
2022-08-02T02:23:25.891Z,23.65
2022-08-02T02:25:55.759Z,22.45
2022-08-02T02:28:30.118Z,23.15
2022-08-02T02:31:05.323Z,23.52
2022-08-02T02:33:35.499Z,21.98
2022-08-02T02:36:03.190Z,22.45
2022-08-02T02:38:32.878Z,23.63
2022-08-02T02:41:03.014Z,22.55
2022-08-02T02:43:31.492Z,23.52
2022-08-02T02:45:59.663Z,22.85
2022-08-02T02:48:27.961Z,23.50
2022-08-02T02:50:55.291Z,23.92
2022-08-02T02:53:22.730Z,23.48
2022-08-02T02:56:01.378Z,23.52
2022-08-02T02:58:31.249Z,23.40
2022-08-02T03:01:16.295Z,23.45
2022-08-02T03:03:44.934Z,23.63
2022-08-02T03:06:14.819Z,24.35
2022-08-02T03:08:42.484Z,23.45
2022-08-02T03:11:10.067Z,23.58
2022-08-02T03:13:38.000Z,22.85
2022-08-02T03:16:05.226Z,23.92
2022-08-02T03:18:36.918Z,25.17
2022-08-02T03:21:09.401Z,23.10
2022-08-02T03:23:35.940Z,23.70
2022-08-02T03:26:02.669Z,23.67
2022-08-02T03:28:29.467Z,24.38
2022-08-02T03:30:56.108Z,24.23
2022-08-02T03:33:24.535Z,24.23
2022-08-02T03:35:54.100Z,24.65
2022-08-02T03:38:23.945Z,25.65
2022-08-02T03:40:57.814Z,25.15
2022-08-02T03:43:28.658Z,25.85
2022-08-02T03:45:57.340Z,25.27
2022-08-02T03:48:34.340Z,25.92
2022-08-02T03:51:02.354Z,26.52
2022-08-02T03:53:29.541Z,25.45
2022-08-02T03:55:56.826Z,26.70
2022-08-02T03:58:24.553Z,26.85
2022-08-02T04:00:53.704Z,26.50
2022-08-02T04:03:20.323Z,27.48
2022-08-02T04:06:00.773Z,26.50
2022-08-02T04:08:35.637Z,25.88
2022-08-02T04:11:22.762Z,26.05
2022-08-02T04:13:49.794Z,26.73
2022-08-02T04:16:22.557Z,26.73
2022-08-02T04:18:58.122Z,27.10
2022-08-02T04:21:48.625Z,26.73
2022-08-02T04:26:48.872Z,27.00
2022-08-02T04:29:18.223Z,26.55
2022-08-02T04:31:45.720Z,26.52
2022-08-02T04:34:15.479Z,25.65
2022-08-02T04:36:43.134Z,26.60
2022-08-02T04:39:10.104Z,26.33
2022-08-02T04:41:43.927Z,26.30
2022-08-02T04:44:11.958Z,27.27
2022-08-02T04:46:39.853Z,27.13
2022-08-02T04:49:07.077Z,27.65
2022-08-02T04:51:38.934Z,29.15
2022-08-02T04:54:09.992Z,27.73
2022-08-02T04:56:38.020Z,28.17
2022-08-02T04:59:04.632Z,28.20
2022-08-02T05:01:31.185Z,29.48
2022-08-02T05:03:57.707Z,28.88
2022-08-02T05:06:24.488Z,29.85
2022-08-02T05:08:52.856Z,29.02
2022-08-02T05:11:20.032Z,29.77
2022-08-02T05:13:58.903Z,30.00
2022-08-02T05:16:31.397Z,31.30
2022-08-02T05:18:59.555Z,31.13
2022-08-02T05:21:26.135Z,30.50
2022-08-02T05:23:52.542Z,31.90
2022-08-02T05:26:18.995Z,32.30
2022-08-02T05:28:45.498Z,32.13
2022-08-02T05:31:13.067Z,32.05
2022-08-02T05:33:40.454Z,33.00
2022-08-02T05:36:07.175Z,31.85
2022-08-02T05:38:37.102Z,32.40
2022-08-02T05:43:30.842Z,31.00
2022-08-02T05:45:57.382Z,31.40
2022-08-02T05:48:27.850Z,32.28
2022-08-02T05:51:04.163Z,32.85
2022-08-02T05:53:49.086Z,30.92
2022-08-02T05:56:32.993Z,30.05
2022-08-02T05:59:13.703Z,28.75
2022-08-02T06:01:42.912Z,27.73
2022-08-02T06:04:16.043Z,26.52
2022-08-02T06:06:44.533Z,25.95
2022-08-02T06:09:22.986Z,24.30
2022-08-02T06:12:01.435Z,22.10
2022-08-02T06:14:37.952Z,20.15
2022-08-02T06:17:05.119Z,18.65
2022-08-02T06:19:51.839Z,17.30
2022-08-02T06:22:34.143Z,16.75
2022-08-02T06:25:05.185Z,15.93
2022-08-02T06:27:31.882Z,14.75
2022-08-02T06:29:58.551Z,14.20
2022-08-02T06:32:27.424Z,14.77
2022-08-02T06:34:54.280Z,13.48
2022-08-02T06:37:29.577Z,12.77
2022-08-02T06:40:06.835Z,12.00
2022-08-02T06:43:15.400Z,12.43
2022-08-02T06:45:42.075Z,12.98
2022-08-02T06:48:09.686Z,12.27
2022-08-02T06:50:41.962Z,11.60
2022-08-02T06:53:09.480Z,11.50
2022-08-02T06:55:43.470Z,11.25
2022-08-02T06:58:11.886Z,11.15
2022-08-02T07:00:38.510Z,11.05
2022-08-02T07:03:05.298Z,11.20
2022-08-02T07:05:31.991Z,11.52
2022-08-02T07:07:58.635Z,10.57
2022-08-02T07:10:25.372Z,11.52
2022-08-02T07:12:51.786Z,11.02
2022-08-02T07:15:18.273Z,10.82
2022-08-02T07:17:44.741Z,11.15
2022-08-02T07:20:11.388Z,10.65
2022-08-02T07:22:37.937Z,11.30
2022-08-02T07:25:05.607Z,10.32
2022-08-02T07:27:32.567Z,10.77
2022-08-02T07:29:59.572Z,11.07
2022-08-02T07:32:29.855Z,10.20
2022-08-02T07:34:57.221Z,10.63
2022-08-02T07:37:54.230Z,10.05
2022-08-02T07:40:20.219Z,10.20
2022-08-02T07:42:49.359Z,10.30
2022-08-02T07:45:15.844Z,10.40
2022-08-02T07:47:44.496Z,10.45
2022-08-02T07:50:12.358Z,9.88
2022-08-02T07:52:43.149Z,10.20
2022-08-02T07:55:11.028Z,10.25
2022-08-02T07:57:43.907Z,10.20
2022-08-02T08:00:13.850Z,9.75
2022-08-02T08:02:40.496Z,10.20
2022-08-02T08:05:07.648Z,10.00
2022-08-02T08:07:34.844Z,10.13
2022-08-02T08:10:01.575Z,10.20
2022-08-02T08:12:28.288Z,9.90
2022-08-02T08:14:54.811Z,9.88
2022-08-02T08:17:21.541Z,10.20
2022-08-02T08:19:52.136Z,9.90
2022-08-02T08:22:20.316Z,10.63
2022-08-02T08:24:48.355Z,10.45
2022-08-02T08:27:15.704Z,10.00
2022-08-02T08:29:43.144Z,9.75
2022-08-02T08:32:15.774Z,9.95
2022-08-02T08:34:43.013Z,9.57
2022-08-02T08:37:09.581Z,9.75
2022-08-02T08:39:56.571Z,10.30
2022-08-02T08:42:24.600Z,9.20
2022-08-02T08:44:51.423Z,9.20
2022-08-02T08:47:18.655Z,8.77
2022-08-02T08:49:52.773Z,8.88
2022-08-02T08:52:20.193Z,9.00
2022-08-02T08:54:48.896Z,8.77
2022-08-02T08:57:18.063Z,8.50
2022-08-02T08:59:45.598Z,8.65
2022-08-02T09:02:19.607Z,8.63
2022-08-02T09:04:50.543Z,8.57
2022-08-02T09:07:21.758Z,9.75
2022-08-02T09:09:48.162Z,9.02
2022-08-02T09:12:19.721Z,8.88
2022-08-02T09:14:50.156Z,8.95
2022-08-02T09:17:18.043Z,8.70
2022-08-02T09:19:46.321Z,8.73
2022-08-02T09:22:15.426Z,9.07
2022-08-02T09:24:46.056Z,9.20
2022-08-02T09:27:14.694Z,9.02
2022-08-02T09:30:05.234Z,9.70
2022-08-02T09:32:43.879Z,8.80
2022-08-02T09:35:10.916Z,9.20
2022-08-02T09:37:37.348Z,9.30
2022-08-02T09:40:06.778Z,9.43
2022-08-02T09:42:34.245Z,9.18
2022-08-02T09:45:02.176Z,9.18
2022-08-02T09:47:31.000Z,9.02
2022-08-02T09:49:58.720Z,8.93
2022-08-02T09:52:37.356Z,8.80
2022-08-02T09:55:11.532Z,8.90
2022-08-02T09:57:38.584Z,9.02
2022-08-02T10:00:16.147Z,8.80
2022-08-02T10:03:11.037Z,8.80
2022-08-02T10:05:54.087Z,8.75
2022-08-02T10:08:22.828Z,8.75
2022-08-02T10:10:49.292Z,9.18
2022-08-02T10:13:21.653Z,8.85
2022-08-02T10:15:50.627Z,9.45
2022-08-02T10:18:36.151Z,9.13
2022-08-02T10:21:09.107Z,8.80
2022-08-02T10:23:38.918Z,8.73
2022-08-02T10:26:07.555Z,8.40
2022-08-02T10:28:34.091Z,8.93
2022-08-02T10:31:04.758Z,8.13
2022-08-02T10:33:35.241Z,8.65
2022-08-02T10:36:06.984Z,8.48
2022-08-02T10:38:36.167Z,8.07
2022-08-02T10:41:03.636Z,8.45
2022-08-02T10:43:36.198Z,8.95
2022-08-02T10:46:21.053Z,8.75
2022-08-02T10:49:36.671Z,8.30
2022-08-02T10:52:02.268Z,8.40
2022-08-02T10:54:33.915Z,8.75
2022-08-02T10:57:01.763Z,8.00
2022-08-02T10:59:33.595Z,8.60
2022-08-02T11:02:05.025Z,8.30
2022-08-02T11:04:53.115Z,8.47
2022-08-02T11:07:31.151Z,8.32
2022-08-02T11:09:59.291Z,7.85
2022-08-02T11:12:27.694Z,8.25
2022-08-02T11:15:07.586Z,8.15
2022-08-02T11:17:54.811Z,8.43
2022-08-02T11:20:23.046Z,8.80
2022-08-02T11:22:52.402Z,7.88
2022-08-02T11:25:24.724Z,8.02
2022-08-02T11:27:58.478Z,8.55
2022-08-02T11:30:27.317Z,8.10
2022-08-02T11:32:59.681Z,8.63
2022-08-02T11:35:34.011Z,8.65
2022-08-02T11:38:14.493Z,8.18
2022-08-02T11:40:43.213Z,8.48
2022-08-02T11:43:24.470Z,8.90
2022-08-02T11:45:52.443Z,8.20
2022-08-02T11:48:36.633Z,8.40
2022-08-02T11:51:29.199Z,8.65
2022-08-02T11:53:58.791Z,8.90
2022-08-02T11:59:04.850Z,8.35
2022-08-02T12:01:41.479Z,8.20
2022-08-02T12:04:16.821Z,8.27
2022-08-02T12:06:43.735Z,7.95
2022-08-02T12:09:19.093Z,8.40
2022-08-02T12:11:50.161Z,8.32
2022-08-02T12:14:16.833Z,7.38
2022-08-02T12:17:01.989Z,7.78
2022-08-02T12:19:29.236Z,7.75
2022-08-02T12:22:10.842Z,7.75
2022-08-02T12:24:39.628Z,7.90
2022-08-02T12:27:06.461Z,7.70
2022-08-02T12:29:58.660Z,7.30
2022-08-02T12:32:26.098Z,7.38
2022-08-02T12:35:03.022Z,7.80
2022-08-02T12:37:29.432Z,7.53
2022-08-02T12:39:55.996Z,7.35
2022-08-02T12:42:22.602Z,7.97
2022-08-02T12:44:58.665Z,7.45
2022-08-02T12:47:35.722Z,8.38
2022-08-02T12:50:12.008Z,7.50
2022-08-02T12:52:38.494Z,7.60
2022-08-02T12:55:15.933Z,7.78
2022-08-02T12:57:59.518Z,7.97
2022-08-02T13:00:34.763Z,7.28
2022-08-02T13:03:01.544Z,7.97
2022-08-02T13:05:29.917Z,7.90
2022-08-02T13:08:16.605Z,7.88
2022-08-02T13:10:43.920Z,7.50
2022-08-02T13:13:10.955Z,7.70
2022-08-02T13:15:49.297Z,7.65
2022-08-02T13:18:18.376Z,7.53
2022-08-02T13:20:45.560Z,8.13
2022-08-02T13:23:21.289Z,7.60
2022-08-02T13:25:52.908Z,7.00
2022-08-02T13:28:20.103Z,7.43
2022-08-02T13:30:47.213Z,7.10
2022-08-02T13:33:14.456Z,6.53
2022-08-02T13:35:41.855Z,7.20
2022-08-02T13:38:08.374Z,7.03
2022-08-02T13:40:49.082Z,7.10
2022-08-02T13:43:15.739Z,7.47
2022-08-02T13:45:42.165Z,8.05
2022-08-02T13:48:16.775Z,7.30
2022-08-02T13:50:44.632Z,7.28
2022-08-02T13:53:11.080Z,6.95
2022-08-02T13:55:37.767Z,7.28
2022-08-02T13:58:09.891Z,7.00
2022-08-02T14:00:36.511Z,6.97
2022-08-02T14:03:05.018Z,6.85
2022-08-02T14:05:38.644Z,7.00
2022-08-02T14:08:18.497Z,7.10
2022-08-02T14:10:47.000Z,7.05
2022-08-02T14:13:13.480Z,7.20
2022-08-02T14:15:39.958Z,7.72
2022-08-02T14:18:06.558Z,7.60
2022-08-02T14:20:33.027Z,7.18
2022-08-02T14:22:59.537Z,7.35
2022-08-02T14:25:26.106Z,7.25
2022-08-02T14:27:52.679Z,7.47
2022-08-02T14:30:19.117Z,7.40
2022-08-02T14:32:45.560Z,7.00
2022-08-02T14:35:11.967Z,6.90
2022-08-02T14:37:38.487Z,7.03
2022-08-02T14:40:05.552Z,7.07
2022-08-02T14:42:31.986Z,7.40
2022-08-02T14:44:58.626Z,7.30
2022-08-02T14:47:25.139Z,7.45
2022-08-02T14:49:51.681Z,7.45
2022-08-02T14:52:19.310Z,7.05
2022-08-02T14:54:46.790Z,7.57
2022-08-02T14:57:13.520Z,7.57
2022-08-02T14:59:42.581Z,7.57
2022-08-02T15:02:09.632Z,7.20
2022-08-02T15:04:42.903Z,7.68
2022-08-02T15:07:09.935Z,7.20
2022-08-02T15:09:39.788Z,7.30
2022-08-02T15:12:07.444Z,7.10
2022-08-02T15:14:33.932Z,7.25
2022-08-02T15:17:00.481Z,7.13
2022-08-02T15:19:44.958Z,7.00
2022-08-02T15:22:17.083Z,7.00
2022-08-02T15:24:45.655Z,7.78
2022-08-02T15:27:14.190Z,7.70
2022-08-02T15:29:41.982Z,7.75
2022-08-02T15:32:08.564Z,7.40
2022-08-02T15:34:35.099Z,7.40
2022-08-02T15:37:01.718Z,7.60
2022-08-02T15:39:28.199Z,7.70
2022-08-02T15:41:54.897Z,7.53
2022-08-02T15:44:21.359Z,8.23
2022-08-02T15:46:47.943Z,6.93
2022-08-02T15:49:14.547Z,7.15
2022-08-02T15:51:41.269Z,7.60
2022-08-02T15:54:07.721Z,7.40
2022-08-02T15:56:34.183Z,7.32
2022-08-02T15:59:00.583Z,7.53
2022-08-02T16:01:32.172Z,7.65
2022-08-02T16:04:05.110Z,7.40
2022-08-02T16:06:31.650Z,7.63
2022-08-02T16:08:58.138Z,7.55
2022-08-02T16:11:24.583Z,8.15
2022-08-02T16:13:54.003Z,7.30
2022-08-02T16:16:32.086Z,7.15
2022-08-02T16:19:00.078Z,7.68
2022-08-02T16:21:48.272Z,8.50
2022-08-02T16:24:14.817Z,7.70
2022-08-02T16:26:41.436Z,8.30
2022-08-02T16:29:08.375Z,8.68
2022-08-02T16:31:38.603Z,8.35
2022-08-02T16:34:08.276Z,8.00
2022-08-02T16:36:34.693Z,7.95
2022-08-02T16:39:01.163Z,7.88
2022-08-02T16:41:51.226Z,8.18
2022-08-02T16:44:14.181Z,8.40
2022-08-02T16:46:40.631Z,8.70
2022-08-02T16:50:03.908Z,10.50
2022-08-02T16:51:57.947Z,11.63
2022-08-02T16:54:24.399Z,9.90
2022-08-02T16:56:53.105Z,8.77
2022-08-02T16:59:19.769Z,8.70
2022-08-02T17:02:02.190Z,8.80
2022-08-02T17:04:38.612Z,9.20
2022-08-02T17:07:11.178Z,8.63
2022-08-02T17:10:03.974Z,9.00
2022-08-02T17:12:34.168Z,8.57
2022-08-02T17:15:36.225Z,8.75
2022-08-02T17:17:47.439Z,7.97
2022-08-02T17:20:14.969Z,8.68
2022-08-02T17:22:41.716Z,8.00
2022-08-02T17:25:13.388Z,8.75
2022-08-02T17:27:41.906Z,8.27
2022-08-02T17:30:10.989Z,8.40
2022-08-02T17:32:37.981Z,8.15
2022-08-02T17:35:06.539Z,8.20
2022-08-02T17:37:41.314Z,8.30
2022-08-02T17:40:09.625Z,8.20
2022-08-02T17:42:36.416Z,8.27
2022-08-02T17:45:16.561Z,7.95
2022-08-02T17:48:04.018Z,8.25
2022-08-02T17:50:32.895Z,8.73
2022-08-02T17:52:59.893Z,9.13
2022-08-02T17:55:26.666Z,9.35
2022-08-02T17:57:58.035Z,8.65
2022-08-02T18:00:32.058Z,8.25
2022-08-02T18:03:00.704Z,8.02
2022-08-02T18:05:39.060Z,8.73
2022-08-02T18:10:34.195Z,7.93
2022-08-02T18:13:00.667Z,8.20
2022-08-02T18:15:29.348Z,8.85
2022-08-02T18:17:58.866Z,8.73
2022-08-02T18:20:25.396Z,9.63
2022-08-02T18:22:58.534Z,8.50
2022-08-02T18:25:36.944Z,9.00
2022-08-02T18:28:10.735Z,9.23
2022-08-02T18:30:37.188Z,8.82
2022-08-02T18:33:58.637Z,8.73
2022-08-02T18:35:50.142Z,9.23
2022-08-02T18:38:16.761Z,8.77
2022-08-02T18:40:51.231Z,9.10
2022-08-02T18:43:18.391Z,9.77
2022-08-02T18:46:07.021Z,9.32
2022-08-02T18:48:31.254Z,9.20
2022-08-02T18:50:57.661Z,8.32
2022-08-02T18:53:39.333Z,8.75
2022-08-02T18:56:20.418Z,8.98
2022-08-02T18:58:54.539Z,8.75
2022-08-02T19:01:32.670Z,8.88
2022-08-02T19:04:03.936Z,9.65
2022-08-02T19:06:30.735Z,10.32
2022-08-02T19:09:11.266Z,9.40
2022-08-02T19:11:41.389Z,9.63
2022-08-02T19:14:14.801Z,9.35
2022-08-02T19:16:50.852Z,9.60
2022-08-02T19:19:19.796Z,10.02
2022-08-02T19:22:18.752Z,9.48
2022-08-02T19:24:33.292Z,8.90
2022-08-02T19:26:59.809Z,9.10
2022-08-02T19:29:42.662Z,9.68
2022-08-02T19:32:42.375Z,9.50
2022-08-02T19:35:28.279Z,9.60
2022-08-02T19:37:52.342Z,9.85
2022-08-02T19:40:24.003Z,9.45
2022-08-02T19:44:23.455Z,9.27
2022-08-02T19:48:25.511Z,9.40
2022-08-02T19:50:56.141Z,10.50
2022-08-02T19:56:12.819Z,9.90
2022-08-02T19:58:47.437Z,9.70
2022-08-02T20:01:16.878Z,9.63
2022-08-02T20:03:51.579Z,9.65
2022-08-02T20:06:19.795Z,10.02
2022-08-02T20:08:59.303Z,9.65
2022-08-02T20:11:34.770Z,10.20
2022-08-02T20:14:03.586Z,10.18
2022-08-02T20:16:32.732Z,9.25
2022-08-02T20:19:01.017Z,9.57
2022-08-02T20:21:34.220Z,8.93
2022-08-02T20:24:02.021Z,9.60
2022-08-02T20:26:29.117Z,9.68
2022-08-02T20:28:55.638Z,9.55
2022-08-02T20:31:29.728Z,9.32
2022-08-02T20:33:56.871Z,9.90
2022-08-02T20:36:24.604Z,9.05
2022-08-02T20:38:51.414Z,9.77
2022-08-02T20:41:21.731Z,9.20
2022-08-02T20:43:48.699Z,8.93
2022-08-02T20:46:15.843Z,8.95
2022-08-02T20:48:42.457Z,8.90
2022-08-02T20:51:12.484Z,9.13
2022-08-02T20:53:54.964Z,9.20
2022-08-02T20:56:23.092Z,8.88
2022-08-02T20:58:52.395Z,9.05
2022-08-02T21:01:21.146Z,8.57
2022-08-02T21:03:58.373Z,9.10
2022-08-02T21:06:25.141Z,9.27
2022-08-02T21:08:55.590Z,9.20
2022-08-02T21:11:25.505Z,9.27
2022-08-02T21:14:07.701Z,9.85
2022-08-02T21:16:35.737Z,9.98
2022-08-02T21:19:02.334Z,9.13
2022-08-02T21:21:29.982Z,10.07
2022-08-02T21:23:56.971Z,9.80
2022-08-02T21:29:10.162Z,10.05
2022-08-02T21:31:40.133Z,9.75
2022-08-02T21:34:26.431Z,9.65
2022-08-02T21:36:53.517Z,9.90
2022-08-02T21:39:20.400Z,9.52
2022-08-02T21:41:47.445Z,9.85
2022-08-02T21:44:18.734Z,10.25
2022-08-02T21:46:49.139Z,10.02
2022-08-02T21:49:17.419Z,10.35
2022-08-02T21:51:49.605Z,9.45
2022-08-02T21:54:19.999Z,9.65
2022-08-02T21:56:51.982Z,10.48
2022-08-02T21:59:26.331Z,9.95
2022-08-02T22:01:56.845Z,10.15
2022-08-02T22:04:24.467Z,9.95
2022-08-02T22:06:51.032Z,9.25
2022-08-02T22:09:43.655Z,10.10
2022-08-02T22:12:08.006Z,9.95
2022-08-02T22:14:39.677Z,9.50
2022-08-02T22:17:13.836Z,9.70
2022-08-02T22:19:51.058Z,10.48
2022-08-02T22:22:20.853Z,10.45
2022-08-02T22:24:55.034Z,11.00
2022-08-02T22:27:23.040Z,11.05
2022-08-02T22:29:49.597Z,10.52
2022-08-02T22:32:36.050Z,9.70
2022-08-02T22:35:08.709Z,9.80
2022-08-02T22:38:16.560Z,10.48
2022-08-02T22:40:24.229Z,9.23
2022-08-02T22:42:50.707Z,9.57
2022-08-02T22:45:17.184Z,9.45
2022-08-02T22:47:50.798Z,8.80
2022-08-02T22:50:17.968Z,9.77
2022-08-02T22:52:46.889Z,9.20
2022-08-02T22:55:16.951Z,8.82
2022-08-02T22:57:56.350Z,9.48
2022-08-02T22:58:53.028Z,9.63
2022-08-02T22:59:06.461Z,10.13
2022-08-02T22:59:10.864Z,9.70
2022-08-02T23:02:50.457Z,8.93
2022-08-02T23:05:16.917Z,9.35
2022-08-02T23:07:43.330Z,9.13
2022-08-02T23:10:09.886Z,9.55
2022-08-02T23:12:36.518Z,9.18
2022-08-02T23:15:03.606Z,10.18
2022-08-02T23:17:48.511Z,9.43
2022-08-02T23:20:15.289Z,9.55
2022-08-02T23:22:41.854Z,9.60
2022-08-02T23:25:08.745Z,9.20
2022-08-02T23:27:35.959Z,9.38
2022-08-02T23:30:02.906Z,8.93
2022-08-02T23:32:29.825Z,9.98
2022-08-02T23:34:57.815Z,10.35
2022-08-02T23:37:24.945Z,10.07
2022-08-02T23:39:51.378Z,10.25
2022-08-02T23:42:18.077Z,10.15
2022-08-02T23:44:44.799Z,10.25
2022-08-02T23:47:11.270Z,9.88
2022-08-02T23:49:38.006Z,9.80
2022-08-02T23:52:04.778Z,10.52
2022-08-02T23:54:31.187Z,10.13
2022-08-02T23:56:57.661Z,10.45
2022-08-02T23:59:24.122Z,10.35
